createdAt,value
2023-03-21T00:01:31.648Z,46.10
2023-03-21T00:03:58.504Z,42.90
2023-03-21T00:06:28.222Z,43.63
2023-03-21T00:08:58.581Z,44.47
2023-03-21T00:11:25.138Z,45.33
2023-03-21T00:14:02.429Z,45.75
2023-03-21T00:16:35.228Z,44.45
2023-03-21T00:19:06.011Z,47.83
2023-03-21T00:21:59.261Z,46.03
2023-03-21T00:24:22.706Z,47.50
2023-03-21T00:27:15.853Z,46.90
2023-03-21T00:29:49.766Z,46.55
2023-03-21T00:32:22.888Z,47.38
2023-03-21T00:35:11.955Z,46.45
2023-03-21T00:37:46.599Z,46.67
2023-03-21T00:40:27.926Z,45.43
2023-03-21T00:42:59.698Z,46.15
2023-03-21T00:45:27.342Z,52.67
2023-03-21T00:47:58.293Z,49.83
2023-03-21T00:50:28.597Z,49.47
2023-03-21T00:52:55.954Z,48.50
2023-03-21T00:55:22.594Z,45.42
2023-03-21T00:58:02.205Z,49.00
2023-03-21T01:00:30.250Z,48.15
2023-03-21T01:03:08.523Z,44.80
2023-03-21T01:06:07.056Z,47.25
2023-03-21T01:08:51.068Z,46.58
2023-03-21T01:11:24.976Z,46.67
2023-03-21T01:13:59.748Z,44.45
2023-03-21T01:16:31.742Z,47.50
2023-03-21T01:18:59.736Z,46.83
2023-03-21T01:21:26.837Z,48.42
2023-03-21T01:23:56.576Z,48.97
2023-03-21T01:26:26.922Z,48.33
2023-03-21T01:28:56.208Z,47.90
2023-03-21T01:31:23.585Z,50.38
2023-03-21T01:33:53.051Z,49.60
2023-03-21T01:36:23.997Z,49.65
2023-03-21T01:39:00.102Z,47.45
2023-03-21T01:41:41.905Z,49.17
2023-03-21T01:44:19.480Z,48.42
2023-03-21T01:47:22.176Z,47.95
2023-03-21T01:49:46.885Z,45.50
2023-03-21T01:52:29.652Z,48.40
2023-03-21T01:55:04.725Z,45.55
2023-03-21T01:57:52.210Z,46.13
2023-03-21T02:00:38.587Z,44.92
2023-03-21T02:03:15.288Z,46.42
2023-03-21T02:06:01.747Z,48.47
2023-03-21T02:08:39.157Z,47.65
2023-03-21T02:11:10.289Z,49.88
2023-03-21T02:13:37.717Z,48.78
2023-03-21T02:16:26.128Z,50.25
2023-03-21T02:19:04.912Z,48.72
2023-03-21T02:21:58.320Z,47.30
2023-03-21T02:24:38.653Z,47.58
2023-03-21T02:27:11.164Z,48.88
2023-03-21T02:30:04.578Z,47.95
2023-03-21T02:33:19.506Z,49.58
2023-03-21T02:36:26.879Z,51.35
2023-03-21T02:38:56.336Z,50.50
2023-03-21T02:41:40.384Z,48.28
2023-03-21T02:44:42.329Z,47.63
2023-03-21T02:47:23.528Z,50.03
2023-03-21T02:49:53.570Z,50.63
2023-03-21T02:52:37.906Z,49.20
2023-03-21T02:55:20.144Z,49.50
2023-03-21T02:57:52.849Z,48.90
2023-03-21T03:03:34.999Z,51.20
2023-03-21T03:06:13.929Z,48.20
2023-03-21T03:09:12.194Z,50.15
2023-03-21T03:11:43.737Z,51.97
2023-03-21T03:14:46.820Z,50.50
2023-03-21T03:17:51.968Z,50.00
2023-03-21T03:20:43.274Z,50.13
2023-03-21T03:23:32.070Z,51.05
2023-03-21T03:26:07.172Z,49.60
2023-03-21T03:28:53.363Z,50.25
2023-03-21T03:31:34.065Z,51.47
2023-03-21T03:34:07.294Z,51.47
2023-03-21T03:36:39.788Z,51.45
2023-03-21T03:39:10.500Z,53.58
2023-03-21T03:42:12.437Z,53.75
2023-03-21T03:44:42.338Z,52.55
2023-03-21T03:47:32.946Z,53.90
2023-03-21T03:50:39.425Z,52.30
2023-03-21T03:53:18.586Z,50.92
2023-03-21T03:55:46.526Z,53.88
2023-03-21T03:58:44.870Z,53.42
2023-03-21T04:01:17.776Z,50.85
2023-03-21T04:06:35.818Z,54.53
2023-03-21T04:09:18.711Z,53.80
2023-03-21T04:11:47.411Z,51.92
2023-03-21T04:14:14.148Z,53.17
2023-03-21T04:16:43.965Z,53.53
2023-03-21T04:19:20.193Z,52.65
2023-03-21T04:21:47.759Z,52.17
2023-03-21T04:24:17.202Z,54.65
2023-03-21T04:26:43.892Z,51.90
2023-03-21T04:29:10.650Z,53.10
2023-03-21T04:31:45.639Z,53.80
2023-03-21T04:34:15.359Z,52.13
2023-03-21T04:36:46.085Z,52.47
2023-03-21T04:39:13.853Z,51.95
2023-03-21T04:41:46.705Z,53.33
2023-03-21T04:44:15.650Z,53.00
2023-03-21T04:46:45.985Z,53.90
2023-03-21T04:49:27.496Z,53.08
2023-03-21T04:51:58.455Z,54.88
2023-03-21T04:54:27.693Z,54.70
2023-03-21T04:56:56.645Z,55.40
2023-03-21T04:59:26.627Z,55.33
2023-03-21T05:01:54.166Z,54.55
2023-03-21T05:04:23.025Z,53.55
2023-03-21T05:06:49.862Z,53.15
2023-03-21T05:09:16.551Z,53.20
2023-03-21T05:11:43.927Z,51.70
2023-03-21T05:14:25.753Z,53.85
2023-03-21T05:17:01.776Z,52.70
2023-03-21T05:19:35.828Z,55.90
2023-03-21T05:22:12.171Z,53.10
2023-03-21T05:24:50.700Z,53.25
2023-03-21T05:27:38.558Z,53.08
2023-03-21T05:30:21.587Z,56.45
2023-03-21T05:32:48.343Z,54.15
2023-03-21T05:35:15.065Z,53.15
2023-03-21T05:37:44.893Z,55.58
2023-03-21T05:40:14.399Z,57.55
2023-03-21T05:42:47.175Z,53.55
2023-03-21T05:45:14.561Z,54.60
2023-03-21T05:47:41.559Z,57.60
2023-03-21T05:50:09.044Z,55.50
2023-03-21T05:52:37.680Z,55.90
2023-03-21T05:57:48.494Z,53.97
2023-03-21T06:00:15.689Z,54.97
2023-03-21T06:02:42.579Z,55.42
2023-03-21T06:05:13.810Z,80.35
2023-03-21T06:07:40.564Z,54.50
2023-03-21T06:10:10.567Z,56.72
2023-03-21T06:12:37.413Z,57.58
2023-03-21T06:15:06.186Z,57.20
2023-03-21T06:17:41.028Z,58.05
2023-03-21T06:20:08.960Z,58.53
2023-03-21T06:22:36.684Z,59.38
2023-03-21T06:25:11.169Z,58.72
2023-03-21T06:27:38.142Z,58.45
2023-03-21T06:30:07.232Z,60.70
2023-03-21T06:32:37.660Z,59.50
2023-03-21T06:35:07.679Z,57.10
2023-03-21T06:37:35.215Z,59.78
2023-03-21T06:40:01.948Z,60.08
2023-03-21T06:42:30.217Z,61.70
2023-03-21T06:44:57.192Z,61.08
2023-03-21T06:47:27.022Z,59.88
2023-03-21T06:49:59.404Z,62.83
2023-03-21T06:52:26.239Z,60.08
2023-03-21T06:54:53.428Z,59.33
2023-03-21T06:57:22.032Z,58.90
2023-03-21T06:59:48.826Z,58.38
2023-03-21T07:02:20.813Z,58.67
2023-03-21T07:07:14.260Z,60.80
2023-03-21T07:09:41.246Z,59.65
2023-03-21T07:12:10.598Z,60.38
2023-03-21T07:14:45.066Z,62.38
2023-03-21T07:17:17.880Z,60.95
2023-03-21T07:19:47.430Z,58.40
2023-03-21T07:22:17.364Z,57.95
2023-03-21T07:24:45.963Z,59.38
2023-03-21T07:27:17.238Z,59.13
2023-03-21T07:29:44.381Z,54.50
2023-03-21T07:32:14.489Z,57.88
2023-03-21T07:34:47.310Z,57.70
2023-03-21T07:37:32.056Z,52.97
2023-03-21T07:40:00.398Z,54.45
2023-03-21T07:42:28.100Z,53.78
2023-03-21T07:45:01.064Z,51.53
2023-03-21T07:47:29.591Z,54.13
2023-03-21T07:49:56.238Z,52.15
2023-03-21T07:52:25.907Z,50.90
2023-03-21T07:54:58.579Z,51.33
2023-03-21T07:57:25.297Z,50.10
2023-03-21T07:59:52.241Z,50.42
2023-03-21T08:02:20.310Z,50.30
2023-03-21T08:04:52.240Z,49.83
2023-03-21T08:12:19.740Z,47.78
2023-03-21T08:14:52.402Z,50.88
2023-03-21T08:17:22.412Z,50.08
2023-03-21T08:19:49.455Z,50.08
2023-03-21T08:22:19.130Z,50.53
2023-03-21T08:24:45.740Z,49.10
2023-03-21T08:30:02.670Z,46.80
2023-03-21T08:32:42.250Z,47.33
2023-03-21T08:35:13.801Z,46.92
2023-03-21T08:37:44.520Z,46.05
2023-03-21T08:40:21.337Z,46.22
2023-03-21T08:42:56.852Z,44.40
2023-03-21T08:45:31.714Z,44.65
2023-03-21T08:47:58.897Z,44.25
2023-03-21T08:50:40.810Z,45.08
2023-03-21T08:53:09.489Z,44.42
2023-03-21T08:55:36.456Z,41.70
2023-03-21T08:58:11.750Z,45.10
2023-03-21T09:00:41.761Z,44.15
2023-03-21T09:03:11.206Z,43.78
2023-03-21T09:05:38.725Z,44.50
2023-03-21T09:08:09.406Z,43.88
2023-03-21T09:10:37.850Z,43.85
2023-03-21T09:13:13.353Z,43.90
2023-03-21T09:15:40.545Z,43.30
2023-03-21T09:18:28.302Z,44.03
2023-03-21T09:20:56.580Z,45.05
2023-03-21T09:23:23.290Z,46.38
2023-03-21T09:25:53.565Z,45.75
2023-03-21T09:28:26.712Z,46.70
2023-03-21T09:30:55.451Z,45.25
2023-03-21T09:33:27.341Z,46.20
2023-03-21T09:38:30.800Z,48.65
2023-03-21T09:41:19.756Z,48.70
2023-03-21T09:44:18.742Z,48.88
2023-03-21T09:47:16.182Z,53.65
2023-03-21T09:49:48.536Z,52.47
2023-03-21T09:52:45.759Z,51.30
2023-03-21T09:55:35.365Z,50.40
2023-03-21T09:58:21.437Z,56.42
2023-03-21T10:01:18.283Z,52.50
2023-03-21T10:03:54.445Z,51.78
2023-03-21T10:06:34.892Z,52.72
2023-03-21T10:09:34.954Z,51.03
2023-03-21T10:15:16.145Z,49.60
2023-03-21T10:17:49.093Z,48.65
2023-03-21T10:20:32.359Z,51.40
2023-03-21T10:23:03.426Z,51.05
2023-03-21T10:25:42.563Z,51.15
2023-03-21T10:28:17.581Z,50.20
2023-03-21T10:31:04.841Z,50.17
2023-03-21T10:33:43.496Z,53.10
2023-03-21T10:36:28.004Z,54.42
2023-03-21T10:39:07.314Z,50.47
2023-03-21T10:41:35.340Z,51.25
2023-03-21T10:44:37.114Z,45.90
2023-03-21T10:47:11.811Z,36.65
2023-03-21T10:50:11.585Z,36.80
2023-03-21T10:52:41.914Z,37.33
2023-03-21T10:55:32.308Z,36.88
2023-03-21T10:58:04.217Z,40.10
2023-03-21T11:00:41.576Z,40.90
2023-03-21T11:03:24.811Z,41.60
2023-03-21T11:05:59.346Z,39.33
2023-03-21T11:08:33.013Z,32.28
2023-03-21T11:11:20.407Z,33.80
2023-03-21T11:13:57.519Z,40.70
2023-03-21T11:16:41.282Z,42.00
2023-03-21T11:19:51.941Z,40.10
2023-03-21T11:22:22.208Z,41.47
2023-03-21T11:24:59.909Z,43.10
2023-03-21T11:27:34.897Z,39.13
2023-03-21T11:30:21.710Z,41.15
2023-03-21T11:32:59.408Z,41.55
2023-03-21T11:35:32.945Z,44.00
2023-03-21T11:38:04.404Z,39.97
2023-03-21T11:40:40.493Z,38.22
2023-03-21T11:43:19.631Z,40.25
2023-03-21T11:46:00.815Z,37.92
2023-03-21T11:48:28.965Z,38.15
2023-03-21T11:54:55.913Z,38.20
2023-03-21T11:57:27.534Z,35.80
2023-03-21T12:03:28.772Z,35.60
2023-03-21T12:06:02.353Z,34.85
2023-03-21T12:08:36.533Z,37.75
2023-03-21T12:11:44.230Z,35.40
2023-03-21T12:14:31.977Z,34.63
2023-03-21T12:17:32.737Z,35.40
2023-03-21T12:20:27.503Z,36.38
2023-03-21T12:23:18.664Z,35.63
2023-03-21T12:26:03.611Z,37.17
2023-03-21T12:28:39.087Z,34.95
2023-03-21T12:31:46.411Z,32.13
2023-03-21T12:34:22.000Z,35.22
2023-03-21T12:37:05.339Z,35.47
2023-03-21T12:39:35.688Z,32.00
2023-03-21T12:42:44.681Z,33.33
2023-03-21T12:45:47.093Z,32.38
2023-03-21T12:48:54.854Z,33.08
2023-03-21T12:51:34.719Z,31.27
2023-03-21T12:54:17.635Z,32.20
2023-03-21T12:57:08.762Z,30.08
2023-03-21T12:59:43.067Z,31.67
2023-03-21T13:02:31.506Z,28.48
2023-03-21T13:05:19.745Z,31.25
2023-03-21T13:07:59.368Z,28.15
2023-03-21T13:10:29.184Z,27.75
2023-03-21T13:13:22.926Z,27.10
2023-03-21T13:19:57.900Z,30.52
2023-03-21T13:22:34.953Z,29.65
2023-03-21T13:25:17.940Z,29.08
2023-03-21T13:28:14.349Z,29.38
2023-03-21T13:30:41.261Z,27.23
2023-03-21T13:33:22.698Z,25.55
2023-03-21T13:36:15.720Z,28.73
2023-03-21T13:38:43.465Z,28.58
2023-03-21T13:41:21.476Z,27.98
2023-03-21T13:44:27.066Z,26.73
2023-03-21T13:47:06.418Z,24.98
2023-03-21T13:49:41.453Z,26.38
2023-03-21T13:52:13.856Z,24.65
2023-03-21T13:54:57.682Z,26.98
2023-03-21T13:57:27.276Z,24.45
2023-03-21T14:00:37.742Z,25.92
2023-03-21T14:03:21.218Z,23.33
2023-03-21T14:05:55.954Z,22.67
2023-03-21T14:08:37.261Z,24.90
2023-03-21T14:11:07.427Z,24.65
2023-03-21T14:13:38.081Z,23.30
2023-03-21T14:16:31.327Z,24.25
2023-03-21T14:19:04.773Z,23.13
2023-03-21T14:21:34.284Z,23.85
2023-03-21T14:24:10.189Z,26.73
2023-03-21T14:26:44.036Z,24.05
2023-03-21T14:29:26.157Z,24.83
2023-03-21T14:32:00.754Z,28.17
2023-03-21T14:34:31.482Z,23.98
2023-03-21T14:37:32.034Z,25.50
2023-03-21T14:40:01.132Z,23.80
2023-03-21T14:45:50.102Z,23.85
2023-03-21T14:48:20.108Z,23.80
2023-03-21T14:51:04.760Z,23.00
2023-03-21T14:53:36.973Z,23.23
2023-03-21T14:59:19.672Z,24.50
2023-03-21T15:01:53.639Z,24.80
2023-03-21T15:04:21.790Z,23.88
2023-03-21T15:07:08.201Z,22.98
2023-03-21T15:09:35.206Z,22.35
2023-03-21T15:12:11.449Z,22.23
2023-03-21T15:14:42.018Z,21.80
2023-03-21T15:17:10.700Z,20.88
2023-03-21T15:19:40.039Z,20.40
2023-03-21T15:22:27.553Z,17.77
2023-03-21T15:25:08.734Z,16.73
2023-03-21T15:27:48.849Z,16.63
2023-03-21T15:30:32.907Z,17.52
2023-03-21T15:33:07.787Z,16.73
2023-03-21T15:35:58.956Z,16.50
2023-03-21T15:38:34.211Z,18.25
2023-03-21T15:41:16.686Z,19.58
2023-03-21T15:46:52.089Z,20.60
2023-03-21T15:50:04.531Z,21.25
2023-03-21T15:52:32.306Z,20.48
2023-03-21T15:55:05.998Z,21.25
2023-03-21T15:57:38.661Z,18.83
2023-03-21T16:00:36.037Z,19.73
2023-03-21T16:03:20.827Z,21.15
2023-03-21T16:06:08.838Z,20.35
2023-03-21T16:08:49.276Z,23.23
2023-03-21T16:11:25.431Z,21.08
2023-03-21T16:13:56.604Z,20.77
2023-03-21T16:16:44.711Z,22.20
2023-03-21T16:19:22.735Z,21.30
2023-03-21T16:21:49.475Z,19.67
2023-03-21T16:24:19.277Z,21.45
2023-03-21T16:26:50.970Z,21.42
2023-03-21T16:31:51.128Z,19.50
2023-03-21T16:34:21.296Z,20.02
2023-03-21T16:36:53.603Z,19.23
2023-03-21T16:39:35.622Z,19.88
2023-03-21T16:42:02.436Z,19.52
2023-03-21T16:44:34.216Z,18.38
2023-03-21T16:49:32.398Z,20.20
2023-03-21T16:51:59.169Z,21.00
2023-03-21T16:54:29.060Z,19.85
2023-03-21T16:56:59.682Z,20.58
2023-03-21T16:59:26.482Z,20.40
2023-03-21T17:01:54.866Z,23.10
2023-03-21T17:04:27.782Z,21.85
2023-03-21T17:07:01.937Z,23.17
2023-03-21T17:09:43.013Z,22.13
2023-03-21T17:12:18.689Z,25.05
2023-03-21T17:17:38.033Z,25.48
2023-03-21T17:20:31.273Z,25.30
2023-03-21T17:23:05.244Z,25.15
2023-03-21T17:25:38.854Z,25.65
2023-03-21T17:28:16.738Z,28.83
2023-03-21T17:30:54.808Z,27.30
2023-03-21T17:33:36.122Z,26.98
2023-03-21T17:36:03.731Z,25.95
2023-03-21T17:38:41.398Z,25.17
2023-03-21T17:41:26.098Z,29.80
2023-03-21T17:44:02.728Z,29.48
2023-03-21T17:46:52.864Z,31.13
2023-03-21T17:49:27.925Z,27.92
2023-03-21T17:52:04.884Z,26.83
2023-03-21T17:55:00.539Z,28.88
2023-03-21T17:57:38.093Z,28.33
2023-03-21T18:00:16.561Z,28.45
2023-03-21T18:02:45.972Z,27.65
2023-03-21T18:05:28.935Z,30.15
2023-03-21T18:11:59.589Z,29.17
2023-03-21T18:14:34.845Z,29.48
2023-03-21T18:17:05.565Z,28.15
2023-03-21T18:19:34.566Z,28.33
2023-03-21T18:22:07.552Z,28.85
2023-03-21T18:24:34.454Z,29.40
2023-03-21T18:27:03.672Z,28.88
2023-03-21T18:32:23.144Z,28.95
2023-03-21T18:34:49.845Z,27.48
2023-03-21T18:37:18.037Z,27.83
2023-03-21T18:39:45.963Z,27.50
2023-03-21T18:42:21.480Z,31.27
2023-03-21T18:45:41.012Z,30.55
2023-03-21T18:48:07.789Z,32.05
2023-03-21T18:50:34.754Z,30.13
2023-03-21T18:53:01.634Z,30.75
2023-03-21T18:55:45.338Z,30.60
2023-03-21T18:58:19.490Z,30.00
2023-03-21T19:00:55.436Z,29.85
2023-03-21T19:03:36.643Z,28.90
2023-03-21T19:06:08.840Z,29.50
2023-03-21T19:08:41.807Z,31.13
2023-03-21T19:11:10.141Z,29.65
2023-03-21T19:13:37.778Z,30.10
2023-03-21T19:16:11.723Z,30.08
2023-03-21T19:18:57.748Z,30.05
2023-03-21T19:21:27.296Z,30.77
2023-03-21T19:24:26.612Z,31.02
2023-03-21T19:26:56.091Z,30.50
2023-03-21T19:29:26.556Z,30.50
2023-03-21T19:31:56.281Z,29.90
2023-03-21T19:34:26.225Z,31.13
2023-03-21T19:36:53.375Z,30.30
2023-03-21T19:39:56.497Z,30.27
2023-03-21T19:42:28.650Z,29.63
2023-03-21T19:45:09.385Z,30.80
2023-03-21T19:47:41.568Z,30.90
2023-03-21T19:50:47.806Z,31.52
2023-03-21T19:52:56.912Z,32.00
2023-03-21T19:55:28.851Z,32.30
2023-03-21T19:57:59.907Z,31.70
2023-03-21T20:00:40.961Z,31.48
2023-03-21T20:03:14.331Z,32.50
2023-03-21T20:05:43.048Z,31.60
2023-03-21T20:08:24.817Z,31.83
2023-03-21T20:10:53.157Z,29.88
2023-03-21T20:13:21.256Z,30.85
2023-03-21T20:15:55.098Z,32.42
2023-03-21T20:18:26.754Z,31.58
2023-03-21T20:20:57.853Z,30.65
2023-03-21T20:23:32.090Z,29.60
2023-03-21T20:26:02.114Z,32.60
2023-03-21T20:28:33.448Z,31.17
2023-03-21T20:31:02.629Z,31.40
2023-03-21T20:33:37.428Z,33.03
2023-03-21T20:39:00.338Z,31.73
2023-03-21T20:41:30.034Z,33.72
2023-03-21T20:44:45.167Z,31.25
2023-03-21T20:46:53.641Z,33.22
2023-03-21T20:49:26.838Z,30.10
2023-03-21T20:52:51.774Z,30.45
2023-03-21T20:55:03.273Z,31.42
2023-03-21T20:57:31.529Z,31.20
2023-03-21T20:59:58.081Z,28.95
2023-03-21T21:02:30.423Z,30.00
2023-03-21T21:05:24.130Z,29.92
2023-03-21T21:07:52.882Z,28.83
2023-03-21T21:10:26.870Z,28.75
2023-03-21T21:12:53.866Z,30.10
2023-03-21T21:15:23.496Z,29.20
2023-03-21T21:18:06.415Z,26.42
2023-03-21T21:20:42.832Z,27.40
2023-03-21T21:23:10.139Z,27.45
2023-03-21T21:25:42.115Z,26.83
2023-03-21T21:28:30.513Z,27.05
2023-03-21T21:31:21.331Z,28.40
2023-03-21T21:33:50.250Z,25.75
2023-03-21T21:36:21.658Z,25.70
2023-03-21T21:38:49.437Z,27.17
2023-03-21T21:41:34.704Z,26.48
2023-03-21T21:44:25.541Z,26.35
2023-03-21T21:52:27.089Z,22.95
2023-03-21T21:54:59.036Z,23.30
2023-03-21T21:57:27.676Z,23.40
2023-03-21T21:59:56.808Z,23.13
2023-03-21T22:02:32.238Z,25.55
2023-03-21T22:05:05.624Z,23.83
2023-03-21T22:07:37.363Z,23.27
2023-03-21T22:10:05.224Z,23.27
2023-03-21T22:12:32.710Z,24.75
2023-03-21T22:14:59.482Z,23.85
2023-03-21T22:17:28.014Z,24.10
2023-03-21T22:22:43.581Z,23.73
2023-03-21T22:27:41.744Z,23.65
2023-03-21T22:30:14.668Z,22.60
2023-03-21T22:33:06.245Z,22.75
2023-03-21T22:35:35.913Z,25.13
2023-03-21T22:38:14.365Z,26.50
2023-03-21T22:40:44.488Z,25.58
2023-03-21T22:43:14.040Z,26.13
2023-03-21T22:45:57.157Z,25.55
2023-03-21T22:48:24.976Z,27.35
2023-03-21T22:50:54.682Z,28.52
2023-03-21T22:53:30.280Z,26.98
2023-03-21T22:55:57.045Z,27.23
2023-03-21T22:58:24.091Z,28.15
2023-03-21T23:00:52.775Z,30.77
2023-03-21T23:03:19.779Z,28.30
2023-03-21T23:05:46.724Z,27.77
2023-03-21T23:08:16.849Z,29.70
2023-03-21T23:10:46.209Z,28.77
2023-03-21T23:13:18.237Z,28.83
2023-03-21T23:16:25.636Z,26.50
2023-03-21T23:19:03.351Z,25.88
2023-03-21T23:21:51.681Z,24.58
2023-03-21T23:24:56.210Z,25.85
2023-03-21T23:27:35.533Z,25.90
2023-03-21T23:30:18.998Z,27.15
2023-03-21T23:35:40.138Z,25.63
2023-03-21T23:38:13.040Z,25.92
2023-03-21T23:40:40.651Z,25.98
2023-03-21T23:43:25.650Z,25.23
2023-03-21T23:45:54.551Z,27.00
2023-03-21T23:48:34.340Z,25.92
2023-03-21T23:53:53.645Z,25.58
2023-03-21T23:56:36.437Z,23.95
2023-03-21T23:59:06.832Z,25.90
